Chernjaevo, Russia
Current Conditions -  °F | °C
As of 7:00 PM on Thursday 27 Nov 2014 (Local Time) from UHBB Reporting Station
Clear Clear  
Wind Chill: -4°   Ceiling: Unl
Heat Index:   Visibility: 6mi
Dew Point: -8°   Wind: 4mph
Humidity: 56%   Direction: 250°WSW
Pressure: 30.18"   Gusts: NA
Location:  52.78°N, 126°E
Report Text: UHBB 271000Z 25002MPS 200V270 CAVOK M15/M22 Q1022 NOSIG RMKQFE749/0999 36410250
Loading
Personal Weather Stations






























Interactive Weather Map New forecast layout! Learn more

10-Day Weather Forecast

Advertisements
Track Severe Weather on mobile